Time;durP1;ratioP1;P1;durP2;ratioP2;P2;SDS_P1;SDS_P2;PMS_P1;PMS_P2;Temp;Humidity;BMP_temperature;BMP_pressure;BME280_temperature;BME280_humidity;BME280_pressure;Samples;Min_cycle;Max_cycle;Signal;HPM_P1;HPM_P2
2023/11/25 00:02:03;;;;;;;3.40;1.98;;;23.20;41.00;;;;;;6162133;28;81163;-74
2023/11/25 00:05:03;;;;;;;2.65;1.70;;;23.20;41.60;;;;;;6163690;28;81200;-68
2023/11/25 00:08:04;;;;;;;2.58;1.90;;;23.30;41.00;;;;;;6157697;28;81653;-68
2023/11/25 00:11:04;;;;;;;2.72;1.67;;;23.30;41.00;;;;;;6163461;28;80996;-68
2023/11/25 00:14:04;;;;;;;6.22;2.03;;;23.30;40.90;;;;;;6163782;28;81766;-70
2023/11/25 00:17:05;;;;;;;4.45;2.15;;;23.20;40.90;;;;;;6161774;28;80614;-68
2023/11/25 00:20:05;;;;;;;4.22;2.10;;;23.30;40.90;;;;;;6161701;28;80729;-69
2023/11/25 00:23:06;;;;;;;3.80;2.00;;;23.30;40.80;;;;;;6164964;28;81536;-71
2023/11/25 00:26:07;;;;;;;3.33;1.98;;;23.30;40.80;;;;;;6161739;28;81030;-69
2023/11/25 00:29:09;;;;;;;2.78;2.22;;;23.30;40.80;;;;;;6183489;28;81568;-68
2023/11/25 00:32:10;;;;;;;3.35;1.80;;;23.30;41.00;;;;;;6174516;28;81516;-67
2023/11/25 00:35:10;;;;;;;3.17;1.50;;;23.30;40.90;;;;;;6177951;28;80893;-66
2023/11/25 00:38:11;;;;;;;5.57;2.67;;;23.30;40.80;;;;;;6178267;28;80564;-67
2023/11/25 00:41:11;;;;;;;3.42;2.20;;;23.30;40.80;;;;;;6176930;28;80352;-67
2023/11/25 00:44:12;;;;;;;3.00;1.90;;;23.20;40.60;;;;;;6177396;28;80308;-69
2023/11/25 00:47:13;;;;;;;3.85;2.42;;;23.20;40.50;;;;;;6177796;28;80517;-70
2023/11/25 00:50:16;;;;;;;3.25;1.65;;;23.20;40.80;;;;;;6176868;28;80837;-67
2023/11/25 00:53:17;;;;;;;2.95;2.00;;;23.20;40.80;;;;;;6176656;28;80779;-69
2023/11/25 00:56:18;;;;;;;3.83;1.95;;;23.20;40.80;;;;;;6175905;28;81484;-70
2023/11/25 00:59:18;;;;;;;3.42;1.73;;;23.20;40.70;;;;;;6176338;28;81633;-75
2023/11/25 01:02:19;;;;;;;5.68;2.20;;;23.10;40.90;;;;;;6176794;28;83314;-72
2023/11/25 01:05:19;;;;;;;2.85;1.80;;;23.20;40.90;;;;;;6176261;28;80267;-72
2023/11/25 01:08:21;;;;;;;2.53;1.60;;;23.20;40.90;;;;;;6176023;28;80663;-71
2023/11/25 01:11:22;;;;;;;4.50;1.85;;;23.10;41.40;;;;;;6174848;28;81802;-73
2023/11/25 01:14:23;;;;;;;3.92;1.95;;;23.10;41.50;;;;;;6176697;28;80732;-71
2023/11/25 01:17:26;;;;;;;3.47;1.75;;;23.10;41.00;;;;;;6176285;28;81408;-64
2023/11/25 01:20:26;;;;;;;3.15;1.77;;;23.10;41.20;;;;;;6174608;28;81834;-67
2023/11/25 01:23:27;;;;;;;4.20;2.05;;;23.10;41.10;;;;;;6177693;28;80239;-66
2023/11/25 01:26:28;;;;;;;3.35;1.80;;;23.20;41.40;;;;;;6177153;28;80773;-67
2023/11/25 01:29:28;;;;;;;4.97;2.05;;;23.20;40.90;;;;;;6174978;28;80454;-69
2023/11/25 01:32:29;;;;;;;3.65;1.90;;;23.20;41.00;;;;;;6175039;28;81010;-66
2023/11/25 01:35:29;;;;;;;2.97;1.55;;;23.20;41.00;;;;;;6174081;28;82326;-56
2023/11/25 01:38:30;;;;;;;2.50;1.67;;;23.10;41.70;;;;;;6176202;28;80978;-56
2023/11/25 01:41:30;;;;;;;3.10;1.65;;;23.20;41.00;;;;;;6176841;28;81001;-58
2023/11/25 01:44:31;;;;;;;2.35;1.63;;;23.20;41.10;;;;;;6175387;28;83414;-59
2023/11/25 01:47:31;;;;;;;4.32;2.00;;;23.20;41.10;;;;;;6174572;28;83003;-57
2023/11/25 01:50:35;;;;;;;2.95;1.77;;;23.20;40.90;;;;;;6175128;28;80343;-59
2023/11/25 01:53:38;;;;;;;2.92;1.67;;;23.20;40.90;;;;;;6174742;28;80758;-59
2023/11/25 01:56:39;;;;;;;3.72;2.22;;;23.20;40.60;;;;;;6174029;28;81841;-58
2023/11/25 01:59:39;;;;;;;2.20;1.20;;;23.20;41.40;;;;;;6173824;28;83175;-61
2023/11/25 02:02:40;;;;;;;2.80;1.90;;;23.20;41.50;;;;;;6172364;28;83639;-60
2023/11/25 02:05:40;;;;;;;2.65;1.50;;;23.20;41.10;;;;;;6175144;28;80165;-60
2023/11/25 02:08:41;;;;;;;2.72;1.50;;;23.20;40.90;;;;;;6175884;28;80447;-59
2023/11/25 02:11:41;;;;;;;3.13;2.00;;;23.20;41.10;;;;;;6175123;28;81673;-67
2023/11/25 02:14:42;;;;;;;1.50;1.25;;;23.20;41.00;;;;;;6172685;28;83190;-67
2023/11/25 02:17:42;;;;;;;3.15;1.58;;;23.20;41.10;;;;;;6176079;28;80472;-68
2023/11/25 02:20:45;;;;;;;1.77;1.52;;;23.20;40.90;;;;;;6175306;28;81128;-65
2023/11/25 02:23:45;;;;;;;2.03;1.48;;;23.20;40.90;;;;;;6172966;28;83565;-67
2023/11/25 02:26:45;;;;;;;2.67;1.40;;;23.20;41.20;;;;;;6174811;28;82839;-66
2023/11/25 02:29:46;;;;;;;2.15;1.20;;;23.20;41.60;;;;;;6170079;28;84181;-74
2023/11/25 02:32:46;;;;;;;2.35;1.40;;;23.20;41.70;;;;;;6174846;28;82588;-72
2023/11/25 02:35:47;;;;;;;2.33;1.30;;;23.20;41.30;;;;;;6177261;28;80202;-72
2023/11/25 02:38:48;;;;;;;2.67;1.63;;;23.20;41.00;;;;;;6175560;28;82182;-66
2023/11/25 02:41:49;;;;;;;3.80;1.80;;;23.20;40.90;;;;;;6173506;28;83723;-68
2023/11/25 02:44:49;;;;;;;5.47;2.20;;;23.20;40.70;;;;;;6175130;28;80751;-71
2023/11/25 02:47:49;;;;;;;2.33;1.50;;;23.10;40.80;;;;;;6176885;28;80345;-72
2023/11/25 02:50:50;;;;;;;2.00;1.33;;;23.10;40.80;;;;;;6174402;28;80308;-72
2023/11/25 02:53:51;;;;;;;1.73;1.10;;;23.10;41.30;;;;;;6173342;28;83345;-70
2023/11/25 02:56:51;;;;;;;2.90;1.60;;;23.10;41.50;;;;;;6174328;28;80658;-70
2023/11/25 02:59:52;;;;;;;1.80;1.38;;;23.10;41.30;;;;;;6167930;28;83130;-66
2023/11/25 03:02:59;;;;;;;2.10;1.55;;;23.10;41.50;;;;;;6174691;28;80168;-67
2023/11/25 03:06:00;;;;;;;2.60;1.42;;;23.10;41.40;;;;;;6173465;28;81897;-66
2023/11/25 03:09:01;;;;;;;3.58;1.60;;;23.10;41.40;;;;;;6173484;28;82843;-68
2023/11/25 03:12:02;;;;;;;2.97;1.67;;;23.10;41.10;;;;;;6175972;28;80301;-65
2023/11/25 03:15:03;;;;;;;1.70;1.40;;;23.10;41.10;;;;;;6174063;28;80469;-63
2023/11/25 03:18:05;;;;;;;3.28;2.03;;;23.10;41.10;;;;;;6172328;28;81767;-63
2023/11/25 03:21:06;;;;;;;3.67;1.60;;;23.10;41.20;;;;;;6172542;28;82029;-65
2023/11/25 03:24:07;;;;;;;2.47;1.38;;;23.10;41.20;;;;;;6174687;28;80357;-65
2023/11/25 03:27:08;;;;;;;2.33;1.30;;;23.10;41.30;;;;;;6172768;28;82981;-65
2023/11/25 03:30:11;;;;;;;1.85;1.10;;;23.10;41.10;;;;;;6179100;28;80518;-65
2023/11/25 03:33:11;;;;;;;1.92;1.38;;;23.10;41.40;;;;;;6178105;28;80380;-66
2023/11/25 03:36:13;;;;;;;2.63;1.70;;;23.10;41.30;;;;;;6178832;28;80772;-68
2023/11/25 03:39:13;;;;;;;2.20;1.50;;;23.10;41.30;;;;;;6171709;28;84727;-67
2023/11/25 03:42:14;;;;;;;2.75;1.42;;;23.10;40.60;;;;;;6178537;28;80432;-66
2023/11/25 03:45:15;;;;;;;4.85;1.63;;;23.10;40.90;;;;;;6177224;28;80769;-68
2023/11/25 03:48:18;;;;;;;3.55;1.60;;;23.10;40.60;;;;;;6175454;28;81754;-67
2023/11/25 03:51:19;;;;;;;4.03;1.83;;;23.10;41.10;;;;;;6177176;28;82288;-67
2023/11/25 03:54:19;;;;;;;2.65;1.50;;;23.10;41.10;;;;;;6176999;28;81670;-67
2023/11/25 03:57:21;;;;;;;8.65;1.40;;;23.10;41.70;;;;;;6168368;28;81606;-66
2023/11/25 04:00:22;;;;;;;6.25;1.85;;;23.10;40.90;;;;;;6178629;28;80249;-68
2023/11/25 04:03:23;;;;;;;2.97;1.58;;;23.10;41.20;;;;;;6176913;28;81551;-70
2023/11/25 04:06:23;;;;;;;2.08;1.30;;;23.10;41.20;;;;;;6178307;28;81239;-64
2023/11/25 04:09:24;;;;;;;4.68;1.40;;;23.00;41.20;;;;;;6175535;28;81468;-67
2023/11/25 04:12:25;;;;;;;2.38;1.30;;;23.10;41.30;;;;;;6176936;28;82580;-66
2023/11/25 04:15:25;;;;;;;2.28;1.33;;;23.10;41.10;;;;;;6177159;28;80299;-69
2023/11/25 04:18:26;;;;;;;4.95;1.40;;;23.10;41.30;;;;;;6175927;28;82748;-68
2023/11/25 04:21:27;;;;;;;2.33;1.20;;;23.10;40.60;;;;;;6177867;28;87890;-69
2023/11/25 04:24:29;;;;;;;3.13;1.50;;;23.10;40.40;;;;;;6177139;28;83229;-69
2023/11/25 04:27:29;;;;;;;3.05;1.48;;;23.10;40.80;;;;;;6177755;28;80622;-71
2023/11/25 04:30:30;;;;;;;2.55;1.55;;;23.10;40.60;;;;;;6177156;28;81008;-68
2023/11/25 04:33:30;;;;;;;2.65;1.65;;;23.20;41.30;;;;;;6177439;28;80672;-70
2023/11/25 04:36:32;;;;;;;1.70;1.05;;;23.20;40.60;;;;;;6177859;28;80447;-70
2023/11/25 04:39:32;;;;;;;2.10;1.15;;;23.20;40.60;;;;;;6197421;28;81206;-57
2023/11/25 04:42:33;;;;;;;1.27;1.10;;;23.20;40.60;;;;;;6179460;28;80569;-56
2023/11/25 04:45:34;;;;;;;2.55;1.30;;;23.30;40.60;;;;;;6198130;28;81339;-55
2023/11/25 04:48:35;;;;;;;2.72;1.20;;;23.30;40.60;;;;;;6184489;28;81309;-57
2023/11/25 04:51:35;;;;;;;1.98;1.38;;;23.30;40.60;;;;;;6139460;28;84952;-56
2023/11/25 04:54:37;;;;;;;1.70;1.08;;;23.30;40.60;;;;;;6165466;28;80282;-57
2023/11/25 04:57:38;;;;;;;1.77;1.23;;;23.40;40.60;;;;;;6188637;28;81896;-68
2023/11/25 05:00:39;;;;;;;3.92;1.63;;;23.40;40.60;;;;;;6190100;28;80459;-69
2023/11/25 05:03:40;;;;;;;1.67;1.25;;;23.40;40.60;;;;;;6177196;28;81843;-68
2023/11/25 05:06:41;;;;;;;2.63;1.25;;;23.40;40.50;;;;;;6178007;28;82286;-68
2023/11/25 05:09:43;;;;;;;3.33;1.20;;;23.40;40.50;;;;;;6176112;28;80575;-69
2023/11/25 05:12:44;;;;;;;2.55;1.23;;;23.40;40.50;;;;;;6186214;28;80356;-69
2023/11/25 05:15:45;;;;;;;1.40;1.00;;;23.50;40.50;;;;;;6201934;28;80896;-71
2023/11/25 05:18:46;;;;;;;2.45;1.10;;;23.50;40.50;;;;;;6184057;28;81500;-69
2023/11/25 05:21:47;;;;;;;0.98;0.90;;;23.50;40.40;;;;;;6177704;28;80285;-67
2023/11/25 05:24:47;;;;;;;4.00;1.20;;;23.50;40.50;;;;;;6176787;28;80454;-69
2023/11/25 05:27:48;;;;;;;1.25;0.90;;;23.50;40.50;;;;;;6144345;28;81278;-70
2023/11/25 05:30:48;;;;;;;2.33;1.17;;;23.50;40.40;;;;;;6162069;28;81228;-69
2023/11/25 05:33:49;;;;;;;1.88;1.02;;;23.50;40.50;;;;;;6159685;28;82086;-55
2023/11/25 05:36:49;;;;;;;1.50;0.70;;;23.60;40.50;;;;;;6160211;28;81037;-55
2023/11/25 05:39:50;;;;;;;1.27;1.00;;;23.60;40.30;;;;;;6173449;28;80561;-57
2023/11/25 05:42:53;;;;;;;1.38;1.00;;;23.60;40.30;;;;;;6175288;28;80737;-57
2023/11/25 05:45:53;;;;;;;1.80;1.10;;;23.60;40.30;;;;;;6176734;28;85528;-58
2023/11/25 05:48:54;;;;;;;1.00;0.90;;;23.60;40.40;;;;;;6174629;28;80297;-56
2023/11/25 05:51:54;;;;;;;1.38;1.00;;;23.60;40.40;;;;;;6199632;28;80740;-68
2023/11/25 05:54:55;;;;;;;1.23;0.90;;;23.60;40.40;;;;;;6187032;28;80535;-69
2023/11/25 05:57:56;;;;;;;1.63;1.00;;;23.50;40.40;;;;;;6167297;28;80419;-68
2023/11/25 06:00:56;;;;;;;0.82;0.70;;;23.50;40.40;;;;;;6172480;28;80069;-70
2023/11/25 06:03:58;;;;;;;3.33;1.50;;;23.50;40.60;;;;;;6175458;28;80544;-69
2023/11/25 06:06:58;;;;;;;2.50;1.10;;;23.50;40.50;;;;;;6176098;28;80883;-70
2023/11/25 06:09:59;;;;;;;1.10;0.98;;;23.50;40.60;;;;;;6175799;28;80442;-58
2023/11/25 06:12:59;;;;;;;3.63;1.27;;;23.50;40.70;;;;;;6175091;28;81734;-59
2023/11/25 06:16:00;;;;;;;0.98;0.70;;;23.50;40.50;;;;;;6174003;28;85424;-60
2023/11/25 06:19:01;;;;;;;1.70;0.98;;;23.50;40.90;;;;;;6172773;28;82354;-61
2023/11/25 06:22:04;;;;;;;1.00;0.80;;;23.50;40.70;;;;;;6173828;28;80745;-60
2023/11/25 06:25:05;;;;;;;5.65;1.08;;;23.40;40.90;;;;;;6173287;28;81099;-58
2023/11/25 06:28:06;;;;;;;1.42;0.90;;;23.40;41.10;;;;;;6166639;28;81351;-72
2023/11/25 06:31:06;;;;;;;1.25;1.10;;;23.30;40.80;;;;;;6168742;28;82862;-71
2023/11/25 06:34:07;;;;;;;2.70;1.20;;;23.40;40.80;;;;;;6153041;28;80795;-72
2023/11/25 06:37:07;;;;;;;1.17;0.73;;;23.30;40.90;;;;;;6163580;28;82101;-70
2023/11/25 06:40:12;;;;;;;1.40;0.82;;;23.30;40.80;;;;;;6167072;28;80814;-70
2023/11/25 06:43:12;;;;;;;2.45;0.80;;;23.30;40.70;;;;;;6171202;28;81257;-76
2023/11/25 06:46:14;;;;;;;1.63;1.00;;;23.30;40.60;;;;;;6176248;28;80808;-64
2023/11/25 06:49:15;;;;;;;0.95;0.85;;;23.30;40.70;;;;;;6174300;28;80748;-63
2023/11/25 06:52:15;;;;;;;1.23;0.82;;;23.30;40.50;;;;;;6173950;28;82119;-63
2023/11/25 06:55:15;;;;;;;1.65;1.00;;;23.30;40.30;;;;;;6174383;28;81264;-68
2023/11/25 06:58:18;;;;;;;2.70;1.15;;;23.30;40.50;;;;;;6163365;28;80483;-66
2023/11/25 07:01:21;;;;;;;2.78;1.25;;;23.30;40.70;;;;;;6174736;28;80783;-66
2023/11/25 07:04:22;;;;;;;1.27;0.90;;;23.20;40.90;;;;;;6179946;28;80424;-67
2023/11/25 07:07:22;;;;;;;7.10;1.15;;;23.30;40.90;;;;;;6177945;28;80627;-71
2023/11/25 07:10:23;;;;;;;2.35;1.35;;;23.20;41.00;;;;;;6177090;28;81473;-68
2023/11/25 07:13:25;;;;;;;6.75;1.85;;;23.20;41.50;;;;;;6179350;28;82485;-71
2023/11/25 07:16:26;;;;;;;3.10;2.13;;;23.20;41.80;;;;;;6178160;28;81746;-62
2023/11/25 07:19:26;;;;;;;5.90;2.50;;;23.20;42.30;;;;;;6175709;28;80674;-68
2023/11/25 07:22:27;;;;;;;5.28;2.40;;;23.30;42.30;;;;;;6173649;28;81417;-67
2023/11/25 07:25:29;;;;;;;6.05;2.72;;;23.30;42.70;;;;;;6172565;28;85896;-59
2023/11/25 07:28:29;;;;;;;4.55;2.60;;;23.30;42.90;;;;;;6175501;28;81594;-60
2023/11/25 07:31:30;;;;;;;6.00;2.85;;;23.30;43.40;;;;;;6155648;28;80595;-58
2023/11/25 07:34:34;;;;;;;9.65;2.88;;;23.30;44.10;;;;;;6175737;28;80701;-59
2023/11/25 07:37:34;;;;;;;11.45;3.25;;;23.30;43.90;;;;;;6174067;28;80559;-59
2023/11/25 07:40:35;;;;;;;5.07;2.55;;;23.30;44.20;;;;;;6174612;28;84107;-57
2023/11/25 07:43:35;;;;;;;6.13;2.50;;;23.40;44.20;;;;;;6177169;28;80429;-64
2023/11/25 07:46:36;;;;;;;5.78;2.50;;;23.40;44.00;;;;;;6174981;28;80859;-65
2023/11/25 07:49:36;;;;;;;4.68;2.30;;;23.40;43.90;;;;;;6173274;28;82965;-65
2023/11/25 07:52:37;;;;;;;4.57;1.95;;;23.40;43.50;;;;;;6174197;28;81509;-65
2023/11/25 07:55:37;;;;;;;7.72;2.47;;;23.40;43.10;;;;;;6177182;28;80246;-64
2023/11/25 07:58:38;;;;;;;2.58;1.55;;;23.40;43.10;;;;;;6177228;28;80707;-63
2023/11/25 08:01:39;;;;;;;5.28;2.00;;;23.40;43.10;;;;;;6176749;28;80986;-65
2023/11/25 08:04:39;;;;;;;5.10;2.88;;;23.40;42.90;;;;;;6173572;28;80669;-69
2023/11/25 08:07:40;;;;;;;2.50;1.67;;;23.40;43.20;;;;;;6168484;28;80935;-75
2023/11/25 08:10:41;;;;;;;5.07;1.77;;;23.40;43.20;;;;;;6174222;28;80477;-74
2023/11/25 08:13:41;;;;;;;7.00;1.77;;;23.40;43.00;;;;;;6174935;28;83881;-68
2023/11/25 08:16:42;;;;;;;8.43;1.95;;;23.40;43.00;;;;;;6171624;28;82926;-72
2023/11/25 08:19:42;;;;;;;5.35;1.90;;;23.40;43.00;;;;;;6173785;28;80775;-64
2023/11/25 08:22:43;;;;;;;4.03;1.80;;;23.40;42.90;;;;;;6173575;28;80974;-66
2023/11/25 08:25:43;;;;;;;5.25;1.55;;;23.40;43.10;;;;;;6174685;28;81981;-62
2023/11/25 08:28:44;;;;;;;3.53;1.65;;;23.40;42.80;;;;;;6175930;28;81342;-60
2023/11/25 08:31:44;;;;;;;4.35;2.00;;;23.40;42.70;;;;;;6171007;28;82095;-63
2023/11/25 08:34:46;;;;;;;4.97;1.55;;;23.40;42.60;;;;;;6166550;28;80796;-64
2023/11/25 08:37:47;;;;;;;2.03;1.60;;;23.40;42.70;;;;;;6175366;28;81243;-63
2023/11/25 08:40:48;;;;;;;2.92;1.55;;;23.50;42.60;;;;;;6176279;28;81149;-61
2023/11/25 08:43:48;;;;;;;2.78;1.20;;;23.40;42.40;;;;;;6178094;28;80968;-66
2023/11/25 08:46:50;;;;;;;2.33;1.48;;;23.50;42.60;;;;;;6176692;28;80906;-64
2023/11/25 08:49:50;;;;;;;1.80;1.10;;;23.50;42.20;;;;;;6177629;28;80426;-66
2023/11/25 08:52:51;;;;;;;6.13;1.15;;;23.50;42.10;;;;;;6175373;28;83381;-67
2023/11/25 08:55:52;;;;;;;3.22;1.20;;;23.50;42.00;;;;;;6161194;28;82930;-65
2023/11/25 08:58:55;;;;;;;2.75;1.40;;;23.60;41.90;;;;;;6148737;28;81746;-60
2023/11/25 09:01:57;;;;;;;5.25;1.45;;;23.60;42.10;;;;;;6151243;28;80315;-69
2023/11/25 09:04:58;;;;;;;2.78;1.20;;;23.70;42.20;;;;;;6148732;28;80697;-64
2023/11/25 09:08:00;;;;;;;5.00;1.45;;;23.70;42.10;;;;;;6150156;28;80914;-65
2023/11/25 09:11:01;;;;;;;2.28;1.38;;;23.70;42.10;;;;;;6150421;28;81947;-63
2023/11/25 09:14:03;;;;;;;3.00;1.30;;;23.80;41.90;;;;;;6150164;28;80724;-62
2023/11/25 09:17:05;;;;;;;1.88;1.30;;;23.80;41.90;;;;;;6144346;28;80259;-64
2023/11/25 09:20:09;;;;;;;1.30;1.08;;;23.80;41.60;;;;;;6152318;28;81179;-62
2023/11/25 09:23:11;;;;;;;1.63;1.15;;;23.80;41.50;;;;;;6153761;28;81648;-65
2023/11/25 09:26:11;;;;;;;4.28;1.42;;;24.00;41.40;;;;;;6141585;28;80967;-60
2023/11/25 09:29:12;;;;;;;2.20;1.35;;;24.00;41.30;;;;;;6146790;28;81169;-60
2023/11/25 09:32:12;;;;;;;2.13;1.30;;;24.00;41.40;;;;;;6149472;28;80830;-62
2023/11/25 09:35:14;;;;;;;4.13;2.10;;;24.00;40.90;;;;;;6153315;28;81054;-62
2023/11/25 09:38:15;;;;;;;23.25;10.18;;;23.80;38.90;;;;;;6162908;28;82134;-61
2023/11/25 09:41:15;;;;;;;184.95;78.80;;;23.80;39.70;;;;;;6149741;28;83945;-64
2023/11/25 09:44:16;;;;;;;488.83;216.77;;;23.80;39.20;;;;;;6168316;28;84292;-67
2023/11/25 09:47:16;;;;;;;627.45;307.38;;;23.80;38.90;;;;;;6170408;28;85684;-63
2023/11/25 09:50:19;;;;;;;655.17;325.58;;;23.80;39.30;;;;;;6171158;28;86790;-64
2023/11/25 09:53:19;;;;;;;714.25;344.35;;;23.90;39.60;;;;;;6172324;28;85700;-65
2023/11/25 09:56:20;;;;;;;665.83;328.02;;;23.90;40.00;;;;;;6167834;28;86478;-65
2023/11/25 09:59:21;;;;;;;602.63;280.17;;;23.90;40.10;;;;;;6171405;28;86364;-63
2023/11/25 10:02:21;;;;;;;540.45;246.93;;;23.90;40.30;;;;;;6170957;28;85706;-64
2023/11/25 10:05:22;;;;;;;367.10;155.95;;;23.90;40.50;;;;;;6172126;28;85949;-64
2023/11/25 10:08:22;;;;;;;292.70;120.22;;;23.80;40.20;;;;;;6170198;28;86333;-70
2023/11/25 10:11:23;;;;;;;332.00;133.60;;;23.60;38.40;;;;;;6163115;28;86246;-73
2023/11/25 10:14:23;;;;;;;270.30;115.05;;;23.60;38.80;;;;;;6167218;28;85989;-62
2023/11/25 10:17:24;;;;;;;247.82;110.88;;;23.60;38.50;;;;;;6166928;28;85713;-64
2023/11/25 10:20:25;;;;;;;245.68;106.63;;;23.70;38.40;;;;;;6169267;28;85762;-67
2023/11/25 10:23:26;;;;;;;247.45;102.32;;;23.70;38.50;;;;;;6169635;28;88484;-64
2023/11/25 10:26:26;;;;;;;224.05;95.68;;;23.80;38.90;;;;;;6162418;28;85611;-66
2023/11/25 10:29:28;;;;;;;210.88;96.43;;;23.80;39.20;;;;;;6168438;28;85632;-65
2023/11/25 10:32:29;;;;;;;232.15;100.18;;;23.80;39.30;;;;;;6164404;28;85905;-63
2023/11/25 10:35:29;;;;;;;214.48;94.97;;;23.90;39.60;;;;;;6169615;28;85750;-64
2023/11/25 10:38:31;;;;;;;195.75;87.72;;;23.90;39.60;;;;;;6173171;28;85238;-61
2023/11/25 10:41:31;;;;;;;201.55;85.47;;;23.80;39.60;;;;;;6174930;28;86225;-63
2023/11/25 10:44:34;;;;;;;191.98;83.57;;;23.80;39.20;;;;;;6165474;28;83079;-63
2023/11/25 10:47:34;;;;;;;164.40;72.22;;;23.80;39.50;;;;;;6172244;28;83196;-60
2023/11/25 10:50:35;;;;;;;156.05;66.18;;;23.70;39.90;;;;;;6171018;28;83039;-60
2023/11/25 10:53:36;;;;;;;149.63;64.25;;;23.80;39.50;;;;;;6166302;28;83333;-61
2023/11/25 10:56:37;;;;;;;123.35;56.38;;;23.70;39.10;;;;;;6175912;28;83792;-60
2023/11/25 10:59:40;;;;;;;126.53;53.75;;;23.70;39.70;;;;;;6177387;28;83272;-61
2023/11/25 11:02:41;;;;;;;115.57;52.53;;;23.70;39.10;;;;;;6176835;28;83271;-57
2023/11/25 11:05:42;;;;;;;113.00;51.10;;;23.70;39.00;;;;;;6171673;28;84613;-57
2023/11/25 11:08:43;;;;;;;98.68;43.33;;;23.70;39.00;;;;;;6156691;28;83453;-56
2023/11/25 11:11:46;;;;;;;97.30;42.15;;;23.70;38.70;;;;;;6165176;28;83777;-57
2023/11/25 11:14:47;;;;;;;85.82;37.60;;;23.60;38.80;;;;;;6166989;28;84646;-56
2023/11/25 11:17:47;;;;;;;83.13;38.75;;;23.60;39.00;;;;;;6167133;28;83133;-57
2023/11/25 11:20:50;;;;;;;89.13;35.60;;;23.70;38.80;;;;;;6162307;28;88542;-60
2023/11/25 11:23:51;;;;;;;87.72;33.97;;;23.60;38.90;;;;;;6163342;28;87067;-55
2023/11/25 11:26:52;;;;;;;70.40;29.40;;;23.60;38.80;;;;;;6149927;28;89591;-59
2023/11/25 11:29:53;;;;;;;60.05;28.80;;;23.60;39.20;;;;;;6166649;28;83600;-58
2023/11/25 11:32:53;;;;;;;62.55;26.95;;;23.60;38.90;;;;;;6158593;28;86083;-57
2023/11/25 11:35:54;;;;;;;64.70;26.73;;;23.50;38.90;;;;;;6166892;28;83235;-57
2023/11/25 11:38:54;;;;;;;53.90;23.27;;;23.50;38.80;;;;;;6168949;28;85546;-59
2023/11/25 11:41:55;;;;;;;54.00;23.40;;;23.50;38.70;;;;;;6166358;28;85093;-64
2023/11/25 11:44:56;;;;;;;49.83;22.02;;;23.50;39.00;;;;;;6158614;28;85571;-70
2023/11/25 11:47:56;;;;;;;45.28;20.52;;;23.50;38.70;;;;;;6174842;28;83987;-66
2023/11/25 11:50:58;;;;;;;42.95;20.50;;;23.40;38.80;;;;;;6174240;28;84065;-68
2023/11/25 11:53:58;;;;;;;42.58;18.90;;;23.40;39.00;;;;;;6172653;28;83928;-67
2023/11/25 11:56:59;;;;;;;36.78;17.33;;;23.40;38.90;;;;;;6173460;28;83332;-68
2023/11/25 11:59:59;;;;;;;34.80;15.48;;;23.40;38.80;;;;;;6173483;28;83046;-58
2023/11/25 12:03:00;;;;;;;44.05;15.90;;;23.50;39.20;;;;;;6174162;28;83592;-57
2023/11/25 12:06:00;;;;;;;31.67;14.75;;;23.50;38.90;;;;;;6175155;28;83976;-58
2023/11/25 12:09:01;;;;;;;32.85;15.30;;;23.50;38.80;;;;;;6173648;28;85356;-54
2023/11/25 12:12:01;;;;;;;25.42;13.45;;;23.50;38.90;;;;;;6173453;28;83173;-58
2023/11/25 12:15:04;;;;;;;25.85;11.88;;;23.60;38.80;;;;;;6173496;28;88638;-62
2023/11/25 12:18:08;;;;;;;29.35;11.60;;;23.60;38.90;;;;;;6173989;28;82975;-60
2023/11/25 12:21:08;;;;;;;23.10;11.77;;;23.60;38.90;;;;;;6174360;28;84426;-61
2023/11/25 12:24:09;;;;;;;25.60;10.98;;;23.60;38.80;;;;;;6171348;28;83890;-61
2023/11/25 12:27:09;;;;;;;22.02;10.48;;;23.60;38.80;;;;;;6173924;28;84515;-59
2023/11/25 12:30:10;;;;;;;19.50;9.25;;;23.60;39.50;;;;;;6172713;28;84404;-59
2023/11/25 12:33:10;;;;;;;19.88;10.32;;;23.60;41.30;;;;;;6174698;28;81757;-62
2023/11/25 12:36:11;;;;;;;18.05;9.05;;;23.60;41.70;;;;;;6174190;28;83853;-64
2023/11/25 12:39:12;;;;;;;21.10;8.95;;;23.60;42.30;;;;;;6176792;28;83044;-63
2023/11/25 12:42:13;;;;;;;17.83;9.40;;;23.60;43.60;;;;;;6160762;28;81703;-63
2023/11/25 12:45:13;;;;;;;20.73;9.45;;;23.50;44.40;;;;;;6177579;28;80639;-65
2023/11/25 12:48:19;;;;;;;21.25;7.50;;;23.50;45.70;;;;;;6168509;28;80909;-63
2023/11/25 12:51:19;;;;;;;18.52;8.30;;;23.50;46.50;;;;;;6177230;28;80623;-62
2023/11/25 12:54:20;;;;;;;19.17;8.10;;;23.50;48.50;;;;;;6177280;28;81120;-66
2023/11/25 12:57:20;;;;;;;16.30;7.05;;;23.60;48.90;;;;;;6176846;28;80936;-63
2023/11/25 13:00:22;;;;;;;13.18;5.90;;;23.70;48.00;;;;;;6175123;28;80391;-65
2023/11/25 13:03:23;;;;;;;14.35;7.30;;;23.70;48.10;;;;;;6176020;28;80360;-64
2023/11/25 13:06:24;;;;;;;14.73;6.68;;;23.70;48.80;;;;;;6176815;28;80536;-64
2023/11/25 13:09:27;;;;;;;11.05;5.82;;;23.70;48.70;;;;;;6178135;28;80503;-64
2023/11/25 13:12:28;;;;;;;13.30;6.28;;;23.70;48.10;;;;;;6164832;28;80520;-63
2023/11/25 13:15:29;;;;;;;12.73;5.32;;;23.80;48.00;;;;;;6176015;28;80409;-69
2023/11/25 13:18:30;;;;;;;10.82;5.38;;;23.90;48.10;;;;;;6175605;28;82131;-63
2023/11/25 13:21:30;;;;;;;13.27;6.05;;;24.00;47.70;;;;;;6158344;28;82030;-63
2023/11/25 13:24:31;;;;;;;9.68;5.15;;;24.00;47.80;;;;;;6176492;28;82475;-64
2023/11/25 13:27:32;;;;;;;13.52;6.57;;;24.00;48.20;;;;;;6172446;28;83925;-67
2023/11/25 13:30:33;;;;;;;15.70;5.43;;;24.00;48.20;;;;;;6167033;28;85074;-66
2023/11/25 13:33:34;;;;;;;14.13;4.53;;;24.00;48.70;;;;;;6175058;28;80703;-68
2023/11/25 13:36:34;;;;;;;12.93;5.13;;;24.00;48.40;;;;;;6177073;28;81246;-67
2023/11/25 13:39:35;;;;;;;12.20;4.60;;;24.00;48.20;;;;;;6173157;28;80580;-67
2023/11/25 13:42:36;;;;;;;10.02;4.25;;;24.00;48.00;;;;;;6174667;28;81253;-67
2023/11/25 13:45:37;;;;;;;9.15;4.07;;;24.00;47.80;;;;;;6174184;28;83522;-67
2023/11/25 13:48:38;;;;;;;5.65;3.30;;;23.90;47.70;;;;;;6174984;28;80550;-68
2023/11/25 13:51:38;;;;;;;9.15;4.25;;;23.90;47.90;;;;;;6177751;28;80552;-70
2023/11/25 13:54:39;;;;;;;10.90;3.55;;;23.90;48.20;;;;;;6175738;28;80615;-67
2023/11/25 13:57:39;;;;;;;7.65;3.75;;;23.90;48.30;;;;;;6175643;28;81566;-68
2023/11/25 14:00:40;;;;;;;9.02;4.07;;;23.90;48.20;;;;;;6175393;28;80559;-67
2023/11/25 14:03:41;;;;;;;9.10;3.97;;;23.80;48.20;;;;;;6168472;28;83517;-67
2023/11/25 14:06:42;;;;;;;6.40;3.17;;;23.80;48.20;;;;;;6170216;28;81396;-70
2023/11/25 14:09:43;;;;;;;4.90;2.70;;;23.80;48.10;;;;;;6164078;28;81847;-62
2023/11/25 14:12:43;;;;;;;8.30;2.90;;;23.80;48.40;;;;;;6168786;28;81273;-62
2023/11/25 14:15:44;;;;;;;16.00;3.20;;;23.80;48.50;;;;;;6174789;28;80301;-63
2023/11/25 14:18:44;;;;;;;5.72;2.70;;;23.70;48.40;;;;;;6173770;28;80942;-65
2023/11/25 14:21:45;;;;;;;5.90;3.10;;;23.70;48.00;;;;;;6174030;28;80350;-64
2023/11/25 14:24:45;;;;;;;4.82;2.67;;;23.70;47.90;;;;;;6173664;28;80405;-65
2023/11/25 14:27:46;;;;;;;7.63;2.70;;;23.70;48.00;;;;;;6171100;28;84252;-65
2023/11/25 14:30:46;;;;;;;6.20;3.13;;;23.60;47.90;;;;;;6173158;28;81670;-67
2023/11/25 14:33:47;;;;;;;7.88;2.67;;;23.60;47.60;;;;;;6167682;28;80858;-67
2023/11/25 14:36:49;;;;;;;4.13;2.53;;;23.60;47.80;;;;;;6169582;28;80399;-68
2023/11/25 14:39:49;;;;;;;4.80;2.67;;;23.60;47.70;;;;;;6173726;28;85574;-68
2023/11/25 14:42:50;;;;;;;7.43;2.60;;;23.50;47.90;;;;;;6174895;28;81900;-67
2023/11/25 14:45:51;;;;;;;3.35;2.10;;;23.40;47.40;;;;;;6175866;28;81525;-67
2023/11/25 14:48:51;;;;;;;5.40;2.80;;;23.40;48.00;;;;;;6173675;28;80530;-66
2023/11/25 14:51:52;;;;;;;7.25;2.90;;;23.40;47.40;;;;;;6175262;28;80593;-66
2023/11/25 14:54:52;;;;;;;6.00;2.65;;;23.30;47.10;;;;;;6175234;28;80261;-64
2023/11/25 14:57:53;;;;;;;6.60;2.95;;;23.30;47.20;;;;;;6173843;28;80804;-68
2023/11/25 15:00:53;;;;;;;5.25;3.00;;;23.30;47.10;;;;;;6174494;28;84450;-67
2023/11/25 15:03:54;;;;;;;7.03;3.22;;;23.30;46.90;;;;;;6175100;28;81319;-66
2023/11/25 15:06:55;;;;;;;8.63;4.00;;;23.30;47.70;;;;;;6174408;28;81128;-62
2023/11/25 15:09:55;;;;;;;12.65;4.93;;;23.30;48.00;;;;;;6174552;28;80673;-67
2023/11/25 15:12:56;;;;;;;14.75;4.32;;;23.30;47.70;;;;;;6174410;28;80419;-65
2023/11/25 15:15:56;;;;;;;16.08;5.78;;;23.30;47.90;;;;;;6171390;28;87301;-67
2023/11/25 15:18:57;;;;;;;19.38;5.82;;;23.30;48.70;;;;;;6173250;28;84488;-66
2023/11/25 15:21:58;;;;;;;14.38;4.93;;;23.30;48.80;;;;;;6171452;28;83908;-67
2023/11/25 15:24:59;;;;;;;16.88;5.47;;;23.30;49.00;;;;;;6175794;28;80617;-68
2023/11/25 15:28:01;;;;;;;14.63;4.57;;;23.30;49.00;;;;;;6174377;28;80795;-68
2023/11/25 15:31:01;;;;;;;13.95;4.72;;;23.30;48.60;;;;;;6178637;28;80850;-68
2023/11/25 15:34:02;;;;;;;11.38;4.00;;;23.30;49.00;;;;;;6178081;28;80384;-72